sensor_id;sensor_type;location;lat;lon;timestamp;pressure;altitude;pressure_sealevel;temperature;humidity
63954;BME280;50128;52.094;5.232;2023-01-23T00:00:24;103468.0;;;2.46;100.0
63954;BME280;50128;52.094;5.232;2023-01-23T00:02:03;103471.0;;;2.41;100.0
63954;BME280;50128;52.094;5.232;2023-01-23T00:03:40;103473.0;;;2.37;100.0
63954;BME280;50128;52.094;5.232;2023-01-23T00:05:17;103476.0;;;2.42;100.0
63954;BME280;50128;52.094;5.232;2023-01-23T00:08:31;103475.0;;;2.46;100.0
63954;BME280;50128;52.094;5.232;2023-01-23T00:10:10;103480.0;;;2.48;100.0
63954;BME280;50128;52.094;5.232;2023-01-23T00:11:47;103481.0;;;2.5;100.0
63954;BME280;50128;52.094;5.232;2023-01-23T00:15:01;103479.0;;;2.56;100.0
63954;BME280;50128;52.094;5.232;2023-01-23T00:16:38;103481.0;;;2.54;100.0
63954;BME280;50128;52.094;5.232;2023-01-23T00:18:15;103479.0;;;2.52;100.0
63954;BME280;50128;52.094;5.232;2023-01-23T00:19:52;103479.0;;;2.52;100.0
63954;BME280;50128;52.094;5.232;2023-01-23T00:23:06;103477.0;;;2.46;100.0
63954;BME280;50128;52.094;5.232;2023-01-23T00:24:43;103475.0;;;2.5;100.0
63954;BME280;50128;52.094;5.232;2023-01-23T00:26:23;103478.0;;;2.52;100.0
63954;BME280;50128;52.094;5.232;2023-01-23T00:29:37;103475.0;;;2.5;100.0
63954;BME280;50128;52.094;5.232;2023-01-23T00:31:16;103474.0;;;2.5;100.0
63954;BME280;50128;52.094;5.232;2023-01-23T00:32:54;103473.0;;;2.46;100.0
63954;BME280;50128;52.094;5.232;2023-01-23T00:34:31;103469.0;;;2.5;100.0
63954;BME280;50128;52.094;5.232;2023-01-23T00:37:46;103469.0;;;2.42;100.0
63954;BME280;50128;52.094;5.232;2023-01-23T00:39:23;103470.0;;;2.31;100.0
63954;BME280;50128;52.094;5.232;2023-01-23T00:41:01;103473.0;;;2.34;100.0
63954;BME280;50128;52.094;5.232;2023-01-23T00:44:15;103473.0;;;2.42;100.0
63954;BME280;50128;52.094;5.232;2023-01-23T00:45:52;103467.0;;;2.44;100.0
63954;BME280;50128;52.094;5.232;2023-01-23T00:47:29;103469.0;;;2.42;100.0
63954;BME280;50128;52.094;5.232;2023-01-23T00:49:07;103465.00000000001;;;2.44;100.0
63954;BME280;50128;52.094;5.232;2023-01-23T00:52:21;103464.00000000001;;;2.31;100.0
63954;BME280;50128;52.094;5.232;2023-01-23T00:53:59;103467.0;;;2.34;100.0
63954;BME280;50128;52.094;5.232;2023-01-23T00:55:36;103463.00000000001;;;2.41;100.0
63954;BME280;50128;52.094;5.232;2023-01-23T00:58:50;103459.99999999999;;;2.29;100.0
63954;BME280;50128;52.094;5.232;2023-01-23T01:00:27;103457.0;;;2.32;100.0
63954;BME280;50128;52.094;5.232;2023-01-23T01:02:04;103454.0;;;2.33;100.0
63954;BME280;50128;52.094;5.232;2023-01-23T01:05:19;103449.0;;;2.29;100.0
63954;BME280;50128;52.094;5.232;2023-01-23T01:06:56;103444.0;;;2.27;100.0
63954;BME280;50128;52.094;5.232;2023-01-23T01:08:34;103446.0;;;2.29;100.0
63954;BME280;50128;52.094;5.232;2023-01-23T01:10:12;103449.0;;;2.31;100.0
63954;BME280;50128;52.094;5.232;2023-01-23T01:13:27;103447.0;;;2.38;100.0
63954;BME280;50128;52.094;5.232;2023-01-23T01:15:07;103448.0;;;2.29;100.0
63954;BME280;50128;52.094;5.232;2023-01-23T01:16:46;103445.0;;;2.31;100.0
63954;BME280;50128;52.094;5.232;2023-01-23T01:18:23;103445.0;;;2.44;100.0
63954;BME280;50128;52.094;5.232;2023-01-23T01:21:40;103443.0;;;2.48;100.0
63954;BME280;50128;52.094;5.232;2023-01-23T01:23:17;103444.0;;;2.4;100.0
63954;BME280;50128;52.094;5.232;2023-01-23T01:24:54;103448.0;;;2.35;100.0
63954;BME280;50128;52.094;5.232;2023-01-23T01:28:10;103456.0;;;2.41;100.0
63954;BME280;50128;52.094;5.232;2023-01-23T01:29:47;103458.0;;;2.31;100.0
63954;BME280;50128;52.094;5.232;2023-01-23T01:31:25;103458.99999999999;;;2.48;100.0
63954;BME280;50128;52.094;5.232;2023-01-23T01:33:02;103466.00000000001;;;2.42;100.0
63954;BME280;50128;52.094;5.232;2023-01-23T01:36:18;103467.0;;;2.41;100.0
63954;BME280;50128;52.094;5.232;2023-01-23T01:37:56;103467.0;;;2.4;100.0
63954;BME280;50128;52.094;5.232;2023-01-23T01:39:32;103463.00000000001;;;2.56;100.0
63954;BME280;50128;52.094;5.232;2023-01-23T01:42:53;103459.99999999999;;;2.44;100.0
63954;BME280;50128;52.094;5.232;2023-01-23T01:44:50;103459.99999999999;;;2.57;100.0
63954;BME280;50128;52.094;5.232;2023-01-23T01:46:32;103464.00000000001;;;2.56;100.0
63954;BME280;50128;52.094;5.232;2023-01-23T01:48:08;103458.99999999999;;;2.4;100.0
63954;BME280;50128;52.094;5.232;2023-01-23T01:49:46;103463.00000000001;;;2.52;100.0
63954;BME280;50128;52.094;5.232;2023-01-23T01:53:07;103461.99999999999;;;2.34;100.0
63954;BME280;50128;52.094;5.232;2023-01-23T01:54:48;103463.00000000001;;;2.27;100.0
63954;BME280;50128;52.094;5.232;2023-01-23T01:56:33;103466.00000000001;;;2.34;100.0
63954;BME280;50128;52.094;5.232;2023-01-23T01:58:13;103470.0;;;2.33;100.0
63954;BME280;50128;52.094;5.232;2023-01-23T02:01:33;103468.0;;;2.32;100.0
63954;BME280;50128;52.094;5.232;2023-01-23T02:03:10;103467.0;;;2.4;100.0
63954;BME280;50128;52.094;5.232;2023-01-23T02:04:49;103464.00000000001;;;2.36;100.0
63954;BME280;50128;52.094;5.232;2023-01-23T02:06:27;103459.99999999999;;;2.36;100.0
63954;BME280;50128;52.094;5.232;2023-01-23T02:09:49;103461.99999999999;;;2.4;100.0
63954;BME280;50128;52.094;5.232;2023-01-23T02:11:27;103458.0;;;2.34;100.0
63954;BME280;50128;52.094;5.232;2023-01-23T02:13:19;103458.0;;;2.4;100.0
63954;BME280;50128;52.094;5.232;2023-01-23T02:15:03;103461.99999999999;;;2.33;100.0
63954;BME280;50128;52.094;5.232;2023-01-23T02:18:22;103467.0;;;2.34;100.0
63954;BME280;50128;52.094;5.232;2023-01-23T02:20:07;103467.0;;;2.21;100.0
63954;BME280;50128;52.094;5.232;2023-01-23T02:21:48;103473.0;;;2.35;100.0
63954;BME280;50128;52.094;5.232;2023-01-23T02:23:41;103470.0;;;2.27;100.0
63954;BME280;50128;52.094;5.232;2023-01-23T02:25:31;103472.0;;;2.25;100.0
63954;BME280;50128;52.094;5.232;2023-01-23T02:28:51;103473.0;;;2.31;100.0
63954;BME280;50128;52.094;5.232;2023-01-23T02:30:27;103471.0;;;2.34;100.0
63954;BME280;50128;52.094;5.232;2023-01-23T02:32:04;103480.0;;;2.32;100.0
63954;BME280;50128;52.094;5.232;2023-01-23T02:33:45;103482.0;;;2.35;100.0
63954;BME280;50128;52.094;5.232;2023-01-23T02:37:07;103483.99999999999;;;2.35;100.0
63954;BME280;50128;52.094;5.232;2023-01-23T02:38:50;103480.0;;;2.4;100.0
63954;BME280;50128;52.094;5.232;2023-01-23T02:40:40;103478.0;;;2.31;100.0
63954;BME280;50128;52.094;5.232;2023-01-23T02:42:18;103478.0;;;2.32;100.0
63954;BME280;50128;52.094;5.232;2023-01-23T02:45:39;103483.99999999999;;;2.29;100.0
63954;BME280;50128;52.094;5.232;2023-01-23T02:47:15;103490.00000000001;;;2.39;100.0
63954;BME280;50128;52.094;5.232;2023-01-23T02:48:52;103490.00000000001;;;2.46;100.0
63954;BME280;50128;52.094;5.232;2023-01-23T02:50:29;103491.00000000001;;;2.44;100.0
63954;BME280;50128;52.094;5.232;2023-01-23T02:53:44;103490.00000000001;;;2.38;100.0
63954;BME280;50128;52.094;5.232;2023-01-23T02:55:21;103495.0;;;2.32;100.0
63954;BME280;50128;52.094;5.232;2023-01-23T02:56:58;103496.0;;;2.4;100.0
63954;BME280;50128;52.094;5.232;2023-01-23T03:02:08;103494.0;;;2.32;100.0
63954;BME280;50128;52.094;5.232;2023-01-23T03:03:44;103499.0;;;2.38;100.0
63954;BME280;50128;52.094;5.232;2023-01-23T03:05:22;103499.0;;;2.46;100.0
63954;BME280;50128;52.094;5.232;2023-01-23T03:08:46;103492.0;;;2.37;100.0
63954;BME280;50128;52.094;5.232;2023-01-23T03:10:23;103503.0;;;2.38;100.0
63954;BME280;50128;52.094;5.232;2023-01-23T03:12:00;103501.0;;;2.41;100.0
63954;BME280;50128;52.094;5.232;2023-01-23T03:13:36;103497.0;;;2.5;100.0
63954;BME280;50128;52.094;5.232;2023-01-23T03:16:52;103499.0;;;2.46;100.0
63954;BME280;50128;52.094;5.232;2023-01-23T03:18:30;103503.0;;;2.54;100.0
63954;BME280;50128;52.094;5.232;2023-01-23T03:20:07;103502.0;;;2.52;100.0
63954;BME280;50128;52.094;5.232;2023-01-23T03:23:22;103505.0;;;2.52;100.0
63954;BME280;50128;52.094;5.232;2023-01-23T03:25:00;103501.0;;;2.54;100.0
63954;BME280;50128;52.094;5.232;2023-01-23T03:26:37;103504.0;;;2.41;100.0
63954;BME280;50128;52.094;5.232;2023-01-23T03:30:13;103504.0;;;2.46;100.0
63954;BME280;50128;52.094;5.232;2023-01-23T03:31:50;103501.0;;;2.52;100.0
63954;BME280;50128;52.094;5.232;2023-01-23T03:33:27;103504.0;;;2.46;100.0
63954;BME280;50128;52.094;5.232;2023-01-23T03:35:07;103498.0;;;2.37;100.0
63954;BME280;50128;52.094;5.232;2023-01-23T03:36:45;103494.0;;;2.56;100.0
63954;BME280;50128;52.094;5.232;2023-01-23T03:41:31;103491.00000000001;;;2.58;100.0
63954;BME280;50128;52.094;5.232;2023-01-23T03:43:08;103494.0;;;2.56;100.0
63954;BME280;50128;52.094;5.232;2023-01-23T03:46:20;103497.0;;;2.58;100.0
63954;BME280;50128;52.094;5.232;2023-01-23T03:47:58;103496.0;;;2.52;100.0
63954;BME280;50128;52.094;5.232;2023-01-23T03:49:35;103502.0;;;2.59;100.0
63954;BME280;50128;52.094;5.232;2023-01-23T03:51:12;103501.0;;;2.54;100.0
63954;BME280;50128;52.094;5.232;2023-01-23T03:54:25;103496.0;;;2.59;100.0
63954;BME280;50128;52.094;5.232;2023-01-23T03:56:03;103500.0;;;2.57;100.0
63954;BME280;50128;52.094;5.232;2023-01-23T03:57:39;103505.0;;;2.5;100.0
63954;BME280;50128;52.094;5.232;2023-01-23T04:00:53;103505.0;;;2.52;100.0
63954;BME280;50128;52.094;5.232;2023-01-23T04:02:29;103506.0;;;2.56;100.0
63954;BME280;50128;52.094;5.232;2023-01-23T04:04:05;103507.0;;;2.61;100.0
63954;BME280;50128;52.094;5.232;2023-01-23T04:05:42;103515.00000000001;;;2.59;100.0
63954;BME280;50128;52.094;5.232;2023-01-23T04:08:57;103518.0;;;2.52;100.0
63954;BME280;50128;52.094;5.232;2023-01-23T04:10:35;103519.0;;;2.59;100.0
63954;BME280;50128;52.094;5.232;2023-01-23T04:12:12;103514.00000000001;;;2.54;100.0
63954;BME280;50128;52.094;5.232;2023-01-23T04:15:25;103509.99999999999;;;2.62;100.0
63954;BME280;50128;52.094;5.232;2023-01-23T04:17:02;103514.00000000001;;;2.56;100.0
63954;BME280;50128;52.094;5.232;2023-01-23T04:18:39;103520.0;;;2.54;100.0
63954;BME280;50128;52.094;5.232;2023-01-23T04:21:52;103521.0;;;2.46;100.0
63954;BME280;50128;52.094;5.232;2023-01-23T04:23:28;103524.0;;;2.5;100.0
63954;BME280;50128;52.094;5.232;2023-01-23T04:25:05;103526.0;;;2.6;100.0
63954;BME280;50128;52.094;5.232;2023-01-23T04:26:41;103527.0;;;2.52;100.0
63954;BME280;50128;52.094;5.232;2023-01-23T04:29:55;103525.0;;;2.52;100.0
63954;BME280;50128;52.094;5.232;2023-01-23T04:31:31;103524.0;;;2.57;100.0
63954;BME280;50128;52.094;5.232;2023-01-23T04:33:09;103525.0;;;2.63;100.0
63954;BME280;50128;52.094;5.232;2023-01-23T04:36:21;103524.0;;;2.68;100.0
63954;BME280;50128;52.094;5.232;2023-01-23T04:37:57;103518.0;;;2.57;100.0
63954;BME280;50128;52.094;5.232;2023-01-23T04:42:53;103518.0;;;2.64;100.0
63954;BME280;50128;52.094;5.232;2023-01-23T04:44:30;103517.0;;;2.59;100.0
63954;BME280;50128;52.094;5.232;2023-01-23T04:46:07;103514.00000000001;;;2.54;100.0
63954;BME280;50128;52.094;5.232;2023-01-23T04:47:43;103522.0;;;2.52;100.0
63954;BME280;50128;52.094;5.232;2023-01-23T04:50:57;103521.0;;;2.56;100.0
63954;BME280;50128;52.094;5.232;2023-01-23T04:52:33;103523.0;;;2.56;100.0
63954;BME280;50128;52.094;5.232;2023-01-23T04:54:10;103523.0;;;2.42;100.0
63954;BME280;50128;52.094;5.232;2023-01-23T04:57:24;103523.0;;;2.46;100.0
63954;BME280;50128;52.094;5.232;2023-01-23T04:59:02;103518.0;;;2.5;100.0
63954;BME280;50128;52.094;5.232;2023-01-23T05:00:38;103520.0;;;2.41;100.0
63954;BME280;50128;52.094;5.232;2023-01-23T05:02:15;103517.0;;;2.48;100.0
63954;BME280;50128;52.094;5.232;2023-01-23T05:05:28;103519.0;;;2.46;100.0
63954;BME280;50128;52.094;5.232;2023-01-23T05:07:04;103526.0;;;2.42;100.0
63954;BME280;50128;52.094;5.232;2023-01-23T05:08:41;103525.0;;;2.44;100.0
63954;BME280;50128;52.094;5.232;2023-01-23T05:11:55;103524.0;;;2.52;100.0
63954;BME280;50128;52.094;5.232;2023-01-23T05:13:31;103528.0;;;2.44;100.0
63954;BME280;50128;52.094;5.232;2023-01-23T05:15:08;103533.99999999999;;;2.46;100.0
63954;BME280;50128;52.094;5.232;2023-01-23T05:18:21;103533.0;;;2.48;100.0
63954;BME280;50128;52.094;5.232;2023-01-23T05:19:57;103536.99999999999;;;2.73;100.0
63954;BME280;50128;52.094;5.232;2023-01-23T05:21:34;103529.0;;;2.59;100.0
63954;BME280;50128;52.094;5.232;2023-01-23T05:23:10;103531.0;;;2.69;100.0
63954;BME280;50128;52.094;5.232;2023-01-23T05:26:22;103540.00000000001;;;2.79;100.0
63954;BME280;50128;52.094;5.232;2023-01-23T05:27:59;103536.99999999999;;;2.7;100.0
63954;BME280;50128;52.094;5.232;2023-01-23T05:29:35;103539.00000000001;;;2.69;100.0
63954;BME280;50128;52.094;5.232;2023-01-23T05:32:49;103536.99999999999;;;2.61;100.0
63954;BME280;50128;52.094;5.232;2023-01-23T05:34:25;103542.0;;;2.61;100.0
63954;BME280;50128;52.094;5.232;2023-01-23T05:36:01;103540.00000000001;;;2.61;100.0
63954;BME280;50128;52.094;5.232;2023-01-23T05:39:14;103539.00000000001;;;2.67;100.0
63954;BME280;50128;52.094;5.232;2023-01-23T05:40:50;103538.00000000001;;;2.58;100.0
63954;BME280;50128;52.094;5.232;2023-01-23T05:42:27;103544.0;;;2.57;100.0
63954;BME280;50128;52.094;5.232;2023-01-23T05:44:03;103545.0;;;2.54;100.0
63954;BME280;50128;52.094;5.232;2023-01-23T05:47:15;103543.0;;;2.66;100.0
63954;BME280;50128;52.094;5.232;2023-01-23T05:48:52;103545.0;;;2.54;100.0
63954;BME280;50128;52.094;5.232;2023-01-23T05:50:28;103543.0;;;2.61;100.0
63954;BME280;50128;52.094;5.232;2023-01-23T05:53:41;103543.0;;;2.65;100.0
63954;BME280;50128;52.094;5.232;2023-01-23T05:55:17;103539.00000000001;;;2.54;100.0
63954;BME280;50128;52.094;5.232;2023-01-23T05:56:53;103541.00000000001;;;2.63;100.0
63954;BME280;50128;52.094;5.232;2023-01-23T06:00:09;103541.00000000001;;;2.7;100.0
63954;BME280;50128;52.094;5.232;2023-01-23T06:01:48;103539.00000000001;;;2.56;100.0
63954;BME280;50128;52.094;5.232;2023-01-23T06:03:23;103542.0;;;2.71;100.0
63954;BME280;50128;52.094;5.232;2023-01-23T06:05:00;103540.00000000001;;;2.69;100.0
63954;BME280;50128;52.094;5.232;2023-01-23T06:08:11;103540.00000000001;;;2.67;100.0
63954;BME280;50128;52.094;5.232;2023-01-23T06:09:47;103531.0;;;2.56;100.0
63954;BME280;50128;52.094;5.232;2023-01-23T06:11:23;103538.00000000001;;;2.58;100.0
63954;BME280;50128;52.094;5.232;2023-01-23T06:14:36;103541.00000000001;;;2.48;100.0
63954;BME280;50128;52.094;5.232;2023-01-23T06:16:13;103542.0;;;2.5;100.0
63954;BME280;50128;52.094;5.232;2023-01-23T06:17:49;103546.0;;;2.48;100.0
63954;BME280;50128;52.094;5.232;2023-01-23T06:21:01;103552.0;;;2.46;100.0
63954;BME280;50128;52.094;5.232;2023-01-23T06:22:38;103552.0;;;2.41;100.0
63954;BME280;50128;52.094;5.232;2023-01-23T06:24:15;103567.0;;;2.35;100.0
63954;BME280;50128;52.094;5.232;2023-01-23T06:27:27;103570.0;;;2.6;100.0
63954;BME280;50128;52.094;5.232;2023-01-23T06:29:03;103572.0;;;2.46;100.0
63954;BME280;50128;52.094;5.232;2023-01-23T06:30:40;103573.0;;;2.6;100.0
63954;BME280;50128;52.094;5.232;2023-01-23T06:32:17;103579.0;;;2.68;100.0
63954;BME280;50128;52.094;5.232;2023-01-23T06:35:29;103580.0;;;2.7;100.0
63954;BME280;50128;52.094;5.232;2023-01-23T06:37:06;103588.00000000001;;;2.75;100.0
63954;BME280;50128;52.094;5.232;2023-01-23T06:38:42;103589.00000000001;;;2.72;100.0
63954;BME280;50128;52.094;5.232;2023-01-23T06:41:54;103591.00000000001;;;2.7;100.0
63954;BME280;50128;52.094;5.232;2023-01-23T06:43:30;103580.0;;;2.77;100.0
63954;BME280;50128;52.094;5.232;2023-01-23T06:45:08;103576.0;;;2.72;100.0
63954;BME280;50128;52.094;5.232;2023-01-23T06:48:21;103577.0;;;2.68;100.0
63954;BME280;50128;52.094;5.232;2023-01-23T06:49:58;103581.0;;;2.78;100.0
63954;BME280;50128;52.094;5.232;2023-01-23T06:51:35;103577.0;;;2.74;100.0
63954;BME280;50128;52.094;5.232;2023-01-23T06:53:14;103580.0;;;2.61;100.0
63954;BME280;50128;52.094;5.232;2023-01-23T06:56:27;103583.99999999999;;;2.59;100.0
63954;BME280;50128;52.094;5.232;2023-01-23T06:58:03;103583.99999999999;;;2.48;100.0
63954;BME280;50128;52.094;5.232;2023-01-23T06:59:39;103579.0;;;2.52;100.0
63954;BME280;50128;52.094;5.232;2023-01-23T07:02:53;103583.99999999999;;;2.44;100.0
63954;BME280;50128;52.094;5.232;2023-01-23T07:04:29;103580.0;;;2.57;100.0
63954;BME280;50128;52.094;5.232;2023-01-23T07:06:06;103573.0;;;2.54;100.0
63954;BME280;50128;52.094;5.232;2023-01-23T07:07:43;103579.0;;;2.5;100.0
63954;BME280;50128;52.094;5.232;2023-01-23T07:10:55;103578.0;;;2.56;100.0
63954;BME280;50128;52.094;5.232;2023-01-23T07:12:31;103578.0;;;2.56;100.0
63954;BME280;50128;52.094;5.232;2023-01-23T07:14:07;103573.0;;;2.5;100.0
63954;BME280;50128;52.094;5.232;2023-01-23T07:17:22;103575.0;;;2.5;100.0
63954;BME280;50128;52.094;5.232;2023-01-23T07:18:58;103571.0;;;2.58;100.0
63954;BME280;50128;52.094;5.232;2023-01-23T07:20:34;103576.0;;;2.44;100.0
63954;BME280;50128;52.094;5.232;2023-01-23T07:23:46;103579.0;;;2.46;100.0
63954;BME280;50128;52.094;5.232;2023-01-23T07:25:23;103590.00000000001;;;2.46;100.0
63954;BME280;50128;52.094;5.232;2023-01-23T07:27:01;103588.00000000001;;;2.48;100.0
63954;BME280;50128;52.094;5.232;2023-01-23T07:28:37;103586.99999999999;;;2.48;100.0
63954;BME280;50128;52.094;5.232;2023-01-23T07:31:51;103591.00000000001;;;2.46;100.0
63954;BME280;50128;52.094;5.232;2023-01-23T07:33:27;103592.0;;;2.48;100.0
63954;BME280;50128;52.094;5.232;2023-01-23T07:35:04;103602.0;;;2.4;100.0
63954;BME280;50128;52.094;5.232;2023-01-23T07:38:17;103605.0;;;2.4;100.0
63954;BME280;50128;52.094;5.232;2023-01-23T07:39:53;103609.99999999999;;;2.42;100.0
63954;BME280;50128;52.094;5.232;2023-01-23T07:41:29;103604.0;;;2.46;100.0
63954;BME280;50128;52.094;5.232;2023-01-23T07:44:41;103604.0;;;2.67;100.0
63954;BME280;50128;52.094;5.232;2023-01-23T07:46:17;103615.00000000001;;;2.56;100.0
63954;BME280;50128;52.094;5.232;2023-01-23T07:47:53;103616.00000000001;;;2.58;100.0
63954;BME280;50128;52.094;5.232;2023-01-23T07:51:06;103611.99999999999;;;2.69;100.0
63954;BME280;50128;52.094;5.232;2023-01-23T07:52:42;103614.00000000001;;;2.69;100.0
63954;BME280;50128;52.094;5.232;2023-01-23T07:54:18;103613.00000000001;;;2.78;100.0
63954;BME280;50128;52.094;5.232;2023-01-23T07:55:55;103609.99999999999;;;2.72;100.0
63954;BME280;50128;52.094;5.232;2023-01-23T07:59:10;103615.00000000001;;;2.82;100.0
63954;BME280;50128;52.094;5.232;2023-01-23T08:00:49;103618.0;;;2.84;100.0
63954;BME280;50128;52.094;5.232;2023-01-23T08:02:25;103624.0;;;2.82;100.0
63954;BME280;50128;52.094;5.232;2023-01-23T08:05:37;103628.0;;;2.75;100.0
63954;BME280;50128;52.094;5.232;2023-01-23T08:07:13;103634.99999999999;;;2.76;100.0
63954;BME280;50128;52.094;5.232;2023-01-23T08:08:50;103642.0;;;2.79;100.0
63954;BME280;50128;52.094;5.232;2023-01-23T08:10:27;103650.0;;;2.77;100.0
63954;BME280;50128;52.094;5.232;2023-01-23T08:13:40;103648.0;;;2.8;100.0
63954;BME280;50128;52.094;5.232;2023-01-23T08:15:17;103638.00000000001;;;2.71;100.0
63954;BME280;50128;52.094;5.232;2023-01-23T08:16:54;103634.99999999999;;;2.85;100.0
63954;BME280;50128;52.094;5.232;2023-01-23T08:20:10;103646.0;;;2.89;100.0
63954;BME280;50128;52.094;5.232;2023-01-23T08:21:46;103649.0;;;2.73;100.0
63954;BME280;50128;52.094;5.232;2023-01-23T08:23:23;103640.00000000001;;;2.69;100.0
63954;BME280;50128;52.094;5.232;2023-01-23T08:26:37;103641.00000000001;;;2.72;100.0
63954;BME280;50128;52.094;5.232;2023-01-23T08:28:13;103647.0;;;2.74;100.0
63954;BME280;50128;52.094;5.232;2023-01-23T08:29:50;103651.0;;;2.85;100.0
63954;BME280;50128;52.094;5.232;2023-01-23T08:31:26;103651.0;;;2.83;100.0
63954;BME280;50128;52.094;5.232;2023-01-23T08:34:39;103642.0;;;2.96;100.0
63954;BME280;50128;52.094;5.232;2023-01-23T08:36:15;103647.0;;;2.93;100.0
63954;BME280;50128;52.094;5.232;2023-01-23T08:37:51;103664.00000000001;;;2.91;100.0
63954;BME280;50128;52.094;5.232;2023-01-23T08:41:04;103658.0;;;2.87;100.0
63954;BME280;50128;52.094;5.232;2023-01-23T08:42:41;103655.0;;;2.88;100.0
63954;BME280;50128;52.094;5.232;2023-01-23T08:44:18;103647.0;;;2.93;100.0
63954;BME280;50128;52.094;5.232;2023-01-23T08:47:35;103645.0;;;2.83;100.0
63954;BME280;50128;52.094;5.232;2023-01-23T08:49:11;103653.0;;;2.81;100.0
63954;BME280;50128;52.094;5.232;2023-01-23T08:50:49;103655.0;;;2.99;100.0
63954;BME280;50128;52.094;5.232;2023-01-23T08:52:26;103654.0;;;2.96;100.0
63954;BME280;50128;52.094;5.232;2023-01-23T08:55:40;103665.00000000001;;;2.95;100.0
63954;BME280;50128;52.094;5.232;2023-01-23T08:57:17;103667.0;;;2.95;100.0
63954;BME280;50128;52.094;5.232;2023-01-23T08:58:53;103663.00000000001;;;2.97;100.0
63954;BME280;50128;52.094;5.232;2023-01-23T09:02:05;103667.0;;;3.05;100.0
63954;BME280;50128;52.094;5.232;2023-01-23T09:03:41;103675.0;;;3.1;100.0
63954;BME280;50128;52.094;5.232;2023-01-23T09:05:19;103675.0;;;3.15;100.0
63954;BME280;50128;52.094;5.232;2023-01-23T09:06:56;103681.0;;;3.11;100.0
63954;BME280;50128;52.094;5.232;2023-01-23T09:10:10;103678.0;;;3.18;100.0
63954;BME280;50128;52.094;5.232;2023-01-23T09:11:46;103678.0;;;3.21;100.0
63954;BME280;50128;52.094;5.232;2023-01-23T09:13:22;103682.0;;;3.17;100.0
63954;BME280;50128;52.094;5.232;2023-01-23T09:16:35;103677.0;;;3.19;100.0
63954;BME280;50128;52.094;5.232;2023-01-23T09:18:11;103676.0;;;3.15;100.0
63954;BME280;50128;52.094;5.232;2023-01-23T09:19:47;103683.99999999999;;;3.25;100.0
63954;BME280;50128;52.094;5.232;2023-01-23T09:23:00;103686.99999999999;;;3.23;100.0
63954;BME280;50128;52.094;5.232;2023-01-23T09:24:36;103683.99999999999;;;3.32;100.0
63954;BME280;50128;52.094;5.232;2023-01-23T09:26:13;103682.0;;;3.25;100.0
63954;BME280;50128;52.094;5.232;2023-01-23T09:29:26;103683.0;;;3.31;100.0
63954;BME280;50128;52.094;5.232;2023-01-23T09:31:03;103680.0;;;3.31;100.0
63954;BME280;50128;52.094;5.232;2023-01-23T09:32:41;103683.0;;;3.38;100.0
63954;BME280;50128;52.094;5.232;2023-01-23T09:34:17;103688.00000000001;;;3.53;100.0
63954;BME280;50128;52.094;5.232;2023-01-23T09:37:58;103690.00000000001;;;3.5;100.0
63954;BME280;50128;52.094;5.232;2023-01-23T09:39:35;103681.0;;;3.44;100.0
63954;BME280;50128;52.094;5.232;2023-01-23T09:41:15;103684.99999999999;;;3.5;100.0
63954;BME280;50128;52.094;5.232;2023-01-23T09:42:54;103683.99999999999;;;3.53;100.0
63954;BME280;50128;52.094;5.232;2023-01-23T09:46:19;103690.00000000001;;;3.62;100.0
63954;BME280;50128;52.094;5.232;2023-01-23T09:48:09;103683.99999999999;;;3.5;100.0
63954;BME280;50128;52.094;5.232;2023-01-23T09:49:54;103684.99999999999;;;3.67;100.0
63954;BME280;50128;52.094;5.232;2023-01-23T09:51:43;103690.00000000001;;;3.61;100.0
63954;BME280;50128;52.094;5.232;2023-01-23T09:53:30;103682.0;;;3.55;100.0
63954;BME280;50128;52.094;5.232;2023-01-23T09:55:15;103689.00000000001;;;3.65;100.0
63954;BME280;50128;52.094;5.232;2023-01-23T09:58:36;103691.00000000001;;;3.66;100.0
63954;BME280;50128;52.094;5.232;2023-01-23T10:00:20;103692.0;;;3.72;100.0
63954;BME280;50128;52.094;5.232;2023-01-23T10:01:58;103691.00000000001;;;3.72;100.0
63954;BME280;50128;52.094;5.232;2023-01-23T10:03:36;103697.0;;;3.84;100.0
63954;BME280;50128;52.094;5.232;2023-01-23T10:07:06;103697.0;;;3.88;100.0
63954;BME280;50128;52.094;5.232;2023-01-23T10:09:22;103700.0;;;3.97;100.0
63954;BME280;50128;52.094;5.232;2023-01-23T10:11:07;103698.0;;;4.01;100.0
63954;BME280;50128;52.094;5.232;2023-01-23T10:12:56;103699.0;;;4.04;100.0
63954;BME280;50128;52.094;5.232;2023-01-23T10:15:01;103696.0;;;4.07;100.0
63954;BME280;50128;52.094;5.232;2023-01-23T10:16:52;103696.0;;;4.18;100.0
63954;BME280;50128;52.094;5.232;2023-01-23T10:18:42;103697.0;;;4.16;100.0
63954;BME280;50128;52.094;5.232;2023-01-23T10:20:43;103692.0;;;4.03;100.0
63954;BME280;50128;52.094;5.232;2023-01-23T10:22:57;103691.00000000001;;;4.08;100.0
63954;BME280;50128;52.094;5.232;2023-01-23T10:24:48;103690.00000000001;;;4.05;100.0
63954;BME280;50128;52.094;5.232;2023-01-23T10:26:27;103684.99999999999;;;3.98;100.0
63954;BME280;50128;52.094;5.232;2023-01-23T10:30:02;103689.00000000001;;;4.13;100.0
63954;BME280;50128;52.094;5.232;2023-01-23T10:31:50;103682.0;;;4.08;100.0
63954;BME280;50128;52.094;5.232;2023-01-23T10:33:36;103680.0;;;4.08;100.0
63954;BME280;50128;52.094;5.232;2023-01-23T10:35:17;103672.0;;;4.09;100.0
63954;BME280;50128;52.094;5.232;2023-01-23T10:37:04;103669.0;;;4.07;100.0
63954;BME280;50128;52.094;5.232;2023-01-23T10:41:38;103671.0;;;4.16;100.0
63954;BME280;50128;52.094;5.232;2023-01-23T10:43:16;103675.0;;;4.33;100.0
63954;BME280;50128;52.094;5.232;2023-01-23T10:46:33;103674.0;;;4.28;100.0
63954;BME280;50128;52.094;5.232;2023-01-23T10:48:39;103674.0;;;4.14;100.0
63954;BME280;50128;52.094;5.232;2023-01-23T10:50:33;103675.0;;;4.16;100.0
63954;BME280;50128;52.094;5.232;2023-01-23T10:52:30;103676.0;;;4.24;99.71
63954;BME280;50128;52.094;5.232;2023-01-23T10:54:14;103679.0;;;4.26;99.85